sensor_id;sensor_type;location;lat;lon;timestamp;temperature;humidity
52459;DHT22;38372;52.902;6.024;2023-05-10T00:01:10;12.70;99.90
52459;DHT22;38372;52.902;6.024;2023-05-10T00:03:36;12.60;99.90
52459;DHT22;38372;52.902;6.024;2023-05-10T00:06:02;12.60;99.90
52459;DHT22;38372;52.902;6.024;2023-05-10T00:08:28;12.60;99.90
52459;DHT22;38372;52.902;6.024;2023-05-10T00:10:53;12.60;99.90
52459;DHT22;38372;52.902;6.024;2023-05-10T00:13:19;12.60;99.90
52459;DHT22;38372;52.902;6.024;2023-05-10T00:15:45;12.60;99.90
52459;DHT22;38372;52.902;6.024;2023-05-10T00:18:11;12.60;99.90
52459;DHT22;38372;52.902;6.024;2023-05-10T00:20:37;12.50;99.90
52459;DHT22;38372;52.902;6.024;2023-05-10T00:23:02;12.50;99.90
52459;DHT22;38372;52.902;6.024;2023-05-10T00:25:28;12.50;99.90
52459;DHT22;38372;52.902;6.024;2023-05-10T00:27:54;12.50;99.90
52459;DHT22;38372;52.902;6.024;2023-05-10T00:30:23;12.50;99.90
52459;DHT22;38372;52.902;6.024;2023-05-10T00:32:49;12.40;99.90
52459;DHT22;38372;52.902;6.024;2023-05-10T00:35:15;12.40;99.90
52459;DHT22;38372;52.902;6.024;2023-05-10T00:37:41;12.40;99.90
52459;DHT22;38372;52.902;6.024;2023-05-10T00:40:08;12.40;99.90
52459;DHT22;38372;52.902;6.024;2023-05-10T00:42:34;12.40;99.90
52459;DHT22;38372;52.902;6.024;2023-05-10T00:45:00;12.40;99.90
52459;DHT22;38372;52.902;6.024;2023-05-10T00:47:25;12.40;99.90
52459;DHT22;38372;52.902;6.024;2023-05-10T00:49:52;12.40;99.90
52459;DHT22;38372;52.902;6.024;2023-05-10T00:52:17;12.40;99.90
52459;DHT22;38372;52.902;6.024;2023-05-10T00:54:43;12.40;99.90
52459;DHT22;38372;52.902;6.024;2023-05-10T00:57:10;12.30;99.90
52459;DHT22;38372;52.902;6.024;2023-05-10T00:59:36;12.40;99.90
52459;DHT22;38372;52.902;6.024;2023-05-10T01:02:02;12.40;99.90
52459;DHT22;38372;52.902;6.024;2023-05-10T01:04:28;12.30;99.90
52459;DHT22;38372;52.902;6.024;2023-05-10T01:06:54;12.30;99.90
52459;DHT22;38372;52.902;6.024;2023-05-10T01:09:24;12.30;99.90
52459;DHT22;38372;52.902;6.024;2023-05-10T01:11:51;12.30;99.90
52459;DHT22;38372;52.902;6.024;2023-05-10T01:14:19;12.30;99.90
52459;DHT22;38372;52.902;6.024;2023-05-10T01:16:46;12.30;99.90
52459;DHT22;38372;52.902;6.024;2023-05-10T01:19:20;12.40;99.90
52459;DHT22;38372;52.902;6.024;2023-05-10T01:33:24;12.30;99.90
52459;DHT22;38372;52.902;6.024;2023-05-10T01:38:43;12.30;99.90
52459;DHT22;38372;52.902;6.024;2023-05-10T01:41:36;12.40;99.90
52459;DHT22;38372;52.902;6.024;2023-05-10T01:47:15;12.30;99.90
52459;DHT22;38372;52.902;6.024;2023-05-10T01:49:47;12.30;99.90
52459;DHT22;38372;52.902;6.024;2023-05-10T01:52:17;12.40;99.90
52459;DHT22;38372;52.902;6.024;2023-05-10T01:54:59;12.40;99.90
52459;DHT22;38372;52.902;6.024;2023-05-10T01:57:27;12.30;99.90
52459;DHT22;38372;52.902;6.024;2023-05-10T01:59:57;12.40;99.90
52459;DHT22;38372;52.902;6.024;2023-05-10T02:02:24;12.30;99.90
52459;DHT22;38372;52.902;6.024;2023-05-10T02:04:53;12.30;99.90
52459;DHT22;38372;52.902;6.024;2023-05-10T02:07:22;12.30;99.90
52459;DHT22;38372;52.902;6.024;2023-05-10T02:09:49;12.30;99.90
52459;DHT22;38372;52.902;6.024;2023-05-10T02:12:16;12.30;99.90
52459;DHT22;38372;52.902;6.024;2023-05-10T02:14:43;12.30;99.90
52459;DHT22;38372;52.902;6.024;2023-05-10T02:17:09;12.30;99.90
52459;DHT22;38372;52.902;6.024;2023-05-10T02:19:39;12.20;99.90
52459;DHT22;38372;52.902;6.024;2023-05-10T02:22:06;12.30;99.90
52459;DHT22;38372;52.902;6.024;2023-05-10T02:24:34;12.30;99.90
52459;DHT22;38372;52.902;6.024;2023-05-10T02:27:02;12.20;99.90
52459;DHT22;38372;52.902;6.024;2023-05-10T02:29:30;12.20;99.90
52459;DHT22;38372;52.902;6.024;2023-05-10T02:31:57;12.20;99.90
52459;DHT22;38372;52.902;6.024;2023-05-10T02:34:26;12.20;99.90
52459;DHT22;38372;52.902;6.024;2023-05-10T02:36:53;12.20;99.90
52459;DHT22;38372;52.902;6.024;2023-05-10T02:39:20;12.20;99.90
52459;DHT22;38372;52.902;6.024;2023-05-10T02:41:48;12.30;99.90
52459;DHT22;38372;52.902;6.024;2023-05-10T02:44:18;12.30;99.90
52459;DHT22;38372;52.902;6.024;2023-05-10T02:46:45;12.30;99.90
52459;DHT22;38372;52.902;6.024;2023-05-10T02:49:11;12.30;99.90
52459;DHT22;38372;52.902;6.024;2023-05-10T02:51:41;12.30;99.90
52459;DHT22;38372;52.902;6.024;2023-05-10T02:54:12;12.30;99.90
52459;DHT22;38372;52.902;6.024;2023-05-10T02:56:47;12.30;99.90
52459;DHT22;38372;52.902;6.024;2023-05-10T02:59:16;12.30;99.90
52459;DHT22;38372;52.902;6.024;2023-05-10T03:01:42;12.30;99.90
52459;DHT22;38372;52.902;6.024;2023-05-10T03:04:07;12.30;99.90
52459;DHT22;38372;52.902;6.024;2023-05-10T03:06:33;12.30;99.90
52459;DHT22;38372;52.902;6.024;2023-05-10T03:08:59;12.30;99.90
52459;DHT22;38372;52.902;6.024;2023-05-10T03:17:10;12.30;99.90
52459;DHT22;38372;52.902;6.024;2023-05-10T03:19:55;12.20;99.90
52459;DHT22;38372;52.902;6.024;2023-05-10T03:22:26;12.20;99.90
52459;DHT22;38372;52.902;6.024;2023-05-10T03:24:55;12.20;99.90
52459;DHT22;38372;52.902;6.024;2023-05-10T03:27:24;12.20;99.90
52459;DHT22;38372;52.902;6.024;2023-05-10T03:29:53;12.20;99.90
52459;DHT22;38372;52.902;6.024;2023-05-10T03:32:20;12.20;99.90
52459;DHT22;38372;52.902;6.024;2023-05-10T03:34:46;12.20;99.90
52459;DHT22;38372;52.902;6.024;2023-05-10T03:37:11;12.20;99.90
52459;DHT22;38372;52.902;6.024;2023-05-10T03:39:37;12.20;99.90
52459;DHT22;38372;52.902;6.024;2023-05-10T03:42:03;12.20;99.90
52459;DHT22;38372;52.902;6.024;2023-05-10T03:44:29;12.20;99.90
52459;DHT22;38372;52.902;6.024;2023-05-10T03:46:55;12.20;99.90
52459;DHT22;38372;52.902;6.024;2023-05-10T03:49:22;12.20;99.90
52459;DHT22;38372;52.902;6.024;2023-05-10T03:51:48;12.20;99.90
52459;DHT22;38372;52.902;6.024;2023-05-10T03:54:14;12.30;99.90
52459;DHT22;38372;52.902;6.024;2023-05-10T03:56:40;12.30;99.90
52459;DHT22;38372;52.902;6.024;2023-05-10T03:59:06;12.30;99.90
52459;DHT22;38372;52.902;6.024;2023-05-10T04:01:34;12.30;99.90
52459;DHT22;38372;52.902;6.024;2023-05-10T04:04:00;12.30;99.90
52459;DHT22;38372;52.902;6.024;2023-05-10T04:06:26;12.30;99.90
52459;DHT22;38372;52.902;6.024;2023-05-10T04:08:52;12.20;99.90
52459;DHT22;38372;52.902;6.024;2023-05-10T04:11:17;12.20;99.90
52459;DHT22;38372;52.902;6.024;2023-05-10T04:13:43;12.30;99.90
52459;DHT22;38372;52.902;6.024;2023-05-10T04:16:09;12.30;99.90
52459;DHT22;38372;52.902;6.024;2023-05-10T04:18:35;12.30;99.90
52459;DHT22;38372;52.902;6.024;2023-05-10T04:21:01;12.30;99.90
52459;DHT22;38372;52.902;6.024;2023-05-10T04:23:27;12.30;99.90
52459;DHT22;38372;52.902;6.024;2023-05-10T04:25:59;12.30;99.90
52459;DHT22;38372;52.902;6.024;2023-05-10T04:28:25;12.30;99.90
52459;DHT22;38372;52.902;6.024;2023-05-10T04:30:51;12.30;99.90
52459;DHT22;38372;52.902;6.024;2023-05-10T04:33:17;12.30;99.90
52459;DHT22;38372;52.902;6.024;2023-05-10T04:35:42;12.30;99.90
52459;DHT22;38372;52.902;6.024;2023-05-10T04:38:10;12.20;99.90
52459;DHT22;38372;52.902;6.024;2023-05-10T04:40:35;12.20;99.90
52459;DHT22;38372;52.902;6.024;2023-05-10T04:43:01;12.30;99.90
52459;DHT22;38372;52.902;6.024;2023-05-10T04:45:27;12.30;99.90
52459;DHT22;38372;52.902;6.024;2023-05-10T04:47:53;12.30;99.90
52459;DHT22;38372;52.902;6.024;2023-05-10T04:50:18;12.30;99.90
52459;DHT22;38372;52.902;6.024;2023-05-10T04:52:44;12.30;99.90
52459;DHT22;38372;52.902;6.024;2023-05-10T04:55:10;12.30;99.90
52459;DHT22;38372;52.902;6.024;2023-05-10T04:57:36;12.30;99.90
52459;DHT22;38372;52.902;6.024;2023-05-10T05:00:02;12.30;99.90
52459;DHT22;38372;52.902;6.024;2023-05-10T05:02:28;12.30;99.90
52459;DHT22;38372;52.902;6.024;2023-05-10T05:04:55;12.30;99.90
52459;DHT22;38372;52.902;6.024;2023-05-10T05:07:23;12.30;99.90
52459;DHT22;38372;52.902;6.024;2023-05-10T05:09:49;12.30;99.90
52459;DHT22;38372;52.902;6.024;2023-05-10T05:12:15;12.40;99.90
52459;DHT22;38372;52.902;6.024;2023-05-10T05:14:41;12.40;99.90
52459;DHT22;38372;52.902;6.024;2023-05-10T05:17:07;12.40;99.90
52459;DHT22;38372;52.902;6.024;2023-05-10T05:19:33;12.40;99.90
52459;DHT22;38372;52.902;6.024;2023-05-10T05:21:59;12.40;99.90
52459;DHT22;38372;52.902;6.024;2023-05-10T05:24:25;12.40;99.90
52459;DHT22;38372;52.902;6.024;2023-05-10T05:26:51;12.50;99.90
52459;DHT22;38372;52.902;6.024;2023-05-10T05:29:16;12.50;99.90
52459;DHT22;38372;52.902;6.024;2023-05-10T05:31:42;12.50;99.90
52459;DHT22;38372;52.902;6.024;2023-05-10T05:34:08;12.50;99.90
52459;DHT22;38372;52.902;6.024;2023-05-10T05:36:36;12.50;99.90
52459;DHT22;38372;52.902;6.024;2023-05-10T05:39:04;12.50;99.90
52459;DHT22;38372;52.902;6.024;2023-05-10T05:41:29;12.50;99.90
52459;DHT22;38372;52.902;6.024;2023-05-10T05:43:55;12.50;99.90
52459;DHT22;38372;52.902;6.024;2023-05-10T05:46:21;12.50;99.90
52459;DHT22;38372;52.902;6.024;2023-05-10T05:48:47;12.50;99.90
52459;DHT22;38372;52.902;6.024;2023-05-10T05:51:12;12.50;99.90
52459;DHT22;38372;52.902;6.024;2023-05-10T05:53:38;12.60;99.90
52459;DHT22;38372;52.902;6.024;2023-05-10T05:56:04;12.60;99.90
52459;DHT22;38372;52.902;6.024;2023-05-10T05:58:30;12.70;99.90
52459;DHT22;38372;52.902;6.024;2023-05-10T06:00:56;12.70;99.90
52459;DHT22;38372;52.902;6.024;2023-05-10T06:03:22;12.80;99.90
52459;DHT22;38372;52.902;6.024;2023-05-10T06:05:48;12.80;99.90
52459;DHT22;38372;52.902;6.024;2023-05-10T06:08:14;12.80;99.90
52459;DHT22;38372;52.902;6.024;2023-05-10T06:10:40;12.90;99.90
52459;DHT22;38372;52.902;6.024;2023-05-10T06:13:06;12.90;99.90
52459;DHT22;38372;52.902;6.024;2023-05-10T06:15:32;12.90;99.90
52459;DHT22;38372;52.902;6.024;2023-05-10T06:17:58;12.90;99.90
52459;DHT22;38372;52.902;6.024;2023-05-10T06:20:24;13.00;99.90
52459;DHT22;38372;52.902;6.024;2023-05-10T06:22:50;13.00;99.90
52459;DHT22;38372;52.902;6.024;2023-05-10T06:25:16;13.10;99.90
52459;DHT22;38372;52.902;6.024;2023-05-10T06:27:43;13.10;99.90
52459;DHT22;38372;52.902;6.024;2023-05-10T06:30:10;13.10;99.90
52459;DHT22;38372;52.902;6.024;2023-05-10T06:32:36;13.20;99.90
52459;DHT22;38372;52.902;6.024;2023-05-10T06:35:02;13.20;99.90
52459;DHT22;38372;52.902;6.024;2023-05-10T06:37:28;13.10;99.90
52459;DHT22;38372;52.902;6.024;2023-05-10T06:39:54;13.10;99.90
52459;DHT22;38372;52.902;6.024;2023-05-10T06:42:20;13.10;99.90
52459;DHT22;38372;52.902;6.024;2023-05-10T06:44:45;13.20;99.90
52459;DHT22;38372;52.902;6.024;2023-05-10T06:47:11;13.30;99.90
52459;DHT22;38372;52.902;6.024;2023-05-10T06:49:37;13.30;99.90
52459;DHT22;38372;52.902;6.024;2023-05-10T06:52:03;13.40;99.90
52459;DHT22;38372;52.902;6.024;2023-05-10T06:54:29;13.40;99.90
52459;DHT22;38372;52.902;6.024;2023-05-10T06:56:55;13.40;99.90
52459;DHT22;38372;52.902;6.024;2023-05-10T06:59:21;13.40;99.90
52459;DHT22;38372;52.902;6.024;2023-05-10T07:01:47;13.40;99.90
52459;DHT22;38372;52.902;6.024;2023-05-10T07:04:13;13.40;99.90
52459;DHT22;38372;52.902;6.024;2023-05-10T07:06:39;13.50;99.90
52459;DHT22;38372;52.902;6.024;2023-05-10T07:09:05;13.50;99.90
52459;DHT22;38372;52.902;6.024;2023-05-10T07:11:30;13.50;99.90
52459;DHT22;38372;52.902;6.024;2023-05-10T07:13:56;13.60;99.90
52459;DHT22;38372;52.902;6.024;2023-05-10T07:16:22;13.60;99.90
52459;DHT22;38372;52.902;6.024;2023-05-10T07:18:48;13.60;99.90
52459;DHT22;38372;52.902;6.024;2023-05-10T07:21:13;13.60;99.90
52459;DHT22;38372;52.902;6.024;2023-05-10T07:23:39;13.60;99.90
52459;DHT22;38372;52.902;6.024;2023-05-10T07:26:05;13.60;99.90
52459;DHT22;38372;52.902;6.024;2023-05-10T07:28:31;13.60;99.90
52459;DHT22;38372;52.902;6.024;2023-05-10T07:30:57;13.60;99.90
52459;DHT22;38372;52.902;6.024;2023-05-10T07:33:23;13.60;99.90
52459;DHT22;38372;52.902;6.024;2023-05-10T07:35:49;13.50;99.90
52459;DHT22;38372;52.902;6.024;2023-05-10T07:38:15;13.50;99.90
52459;DHT22;38372;52.902;6.024;2023-05-10T07:40:42;13.50;99.90
52459;DHT22;38372;52.902;6.024;2023-05-10T07:43:08;13.40;99.90
52459;DHT22;38372;52.902;6.024;2023-05-10T07:45:34;13.40;99.90
52459;DHT22;38372;52.902;6.024;2023-05-10T07:48:00;13.30;99.90
52459;DHT22;38372;52.902;6.024;2023-05-10T07:50:26;13.40;99.90
52459;DHT22;38372;52.902;6.024;2023-05-10T07:52:52;13.40;99.90
52459;DHT22;38372;52.902;6.024;2023-05-10T07:55:18;13.50;99.90
52459;DHT22;38372;52.902;6.024;2023-05-10T07:58:05;13.50;99.90
52459;DHT22;38372;52.902;6.024;2023-05-10T08:00:55;13.50;99.90
52459;DHT22;38372;52.902;6.024;2023-05-10T08:03:21;13.50;99.90
52459;DHT22;38372;52.902;6.024;2023-05-10T08:05:47;13.50;99.90
52459;DHT22;38372;52.902;6.024;2023-05-10T08:08:13;13.50;99.90
52459;DHT22;38372;52.902;6.024;2023-05-10T08:10:39;13.50;99.90
52459;DHT22;38372;52.902;6.024;2023-05-10T08:13:05;13.50;99.90
52459;DHT22;38372;52.902;6.024;2023-05-10T08:15:31;13.50;99.90
52459;DHT22;38372;52.902;6.024;2023-05-10T08:17:57;13.50;99.90
52459;DHT22;38372;52.902;6.024;2023-05-10T08:20:23;13.50;99.90
52459;DHT22;38372;52.902;6.024;2023-05-10T08:23:07;13.40;99.90
52459;DHT22;38372;52.902;6.024;2023-05-10T08:25:55;13.40;99.90
52459;DHT22;38372;52.902;6.024;2023-05-10T08:28:21;13.50;99.90
52459;DHT22;38372;52.902;6.024;2023-05-10T08:30:46;13.60;99.90
52459;DHT22;38372;52.902;6.024;2023-05-10T08:33:12;13.70;99.90
52459;DHT22;38372;52.902;6.024;2023-05-10T08:35:38;13.80;99.90
52459;DHT22;38372;52.902;6.024;2023-05-10T08:38:04;13.90;99.90
52459;DHT22;38372;52.902;6.024;2023-05-10T08:40:30;14.00;99.90
52459;DHT22;38372;52.902;6.024;2023-05-10T08:43:01;14.10;99.90
52459;DHT22;38372;52.902;6.024;2023-05-10T08:45:32;14.10;99.90
52459;DHT22;38372;52.902;6.024;2023-05-10T08:48:01;14.20;99.90
52459;DHT22;38372;52.902;6.024;2023-05-10T08:50:27;14.20;99.90
52459;DHT22;38372;52.902;6.024;2023-05-10T08:52:59;14.20;99.90
52459;DHT22;38372;52.902;6.024;2023-05-10T08:55:25;14.30;99.90
52459;DHT22;38372;52.902;6.024;2023-05-10T08:57:51;14.40;99.90
52459;DHT22;38372;52.902;6.024;2023-05-10T09:00:18;14.50;99.90
52459;DHT22;38372;52.902;6.024;2023-05-10T09:02:44;14.50;99.90
52459;DHT22;38372;52.902;6.024;2023-05-10T09:05:12;14.50;99.90
52459;DHT22;38372;52.902;6.024;2023-05-10T09:07:38;14.50;99.90
52459;DHT22;38372;52.902;6.024;2023-05-10T09:10:05;14.60;99.90
52459;DHT22;38372;52.902;6.024;2023-05-10T09:12:31;14.70;99.90
52459;DHT22;38372;52.902;6.024;2023-05-10T09:14:59;14.80;99.90
52459;DHT22;38372;52.902;6.024;2023-05-10T09:17:25;14.90;99.90
52459;DHT22;38372;52.902;6.024;2023-05-10T09:20:03;14.80;99.90
52459;DHT22;38372;52.902;6.024;2023-05-10T09:22:33;14.80;99.90
52459;DHT22;38372;52.902;6.024;2023-05-10T09:25:09;14.80;99.90
52459;DHT22;38372;52.902;6.024;2023-05-10T09:27:37;14.80;99.90
52459;DHT22;38372;52.902;6.024;2023-05-10T09:30:04;14.90;99.90
52459;DHT22;38372;52.902;6.024;2023-05-10T09:32:40;14.70;99.90
52459;DHT22;38372;52.902;6.024;2023-05-10T09:35:11;14.70;99.90
52459;DHT22;38372;52.902;6.024;2023-05-10T09:37:39;14.70;99.90
52459;DHT22;38372;52.902;6.024;2023-05-10T09:40:12;14.70;99.90
52459;DHT22;38372;52.902;6.024;2023-05-10T09:42:40;14.70;99.90
52459;DHT22;38372;52.902;6.024;2023-05-10T09:45:06;14.70;99.90
52459;DHT22;38372;52.902;6.024;2023-05-10T09:47:36;14.80;99.90
52459;DHT22;38372;52.902;6.024;2023-05-10T09:50:05;14.80;99.90
52459;DHT22;38372;52.902;6.024;2023-05-10T09:52:45;14.80;99.90
52459;DHT22;38372;52.902;6.024;2023-05-10T09:55:11;14.80;99.90
52459;DHT22;38372;52.902;6.024;2023-05-10T09:57:37;14.90;99.90
52459;DHT22;38372;52.902;6.024;2023-05-10T10:00:04;15.00;99.90
52459;DHT22;38372;52.902;6.024;2023-05-10T10:02:31;15.10;99.90
52459;DHT22;38372;52.902;6.024;2023-05-10T10:04:57;15.20;99.90
52459;DHT22;38372;52.902;6.024;2023-05-10T10:07:24;15.40;99.90
52459;DHT22;38372;52.902;6.024;2023-05-10T10:09:53;15.50;99.90
52459;DHT22;38372;52.902;6.024;2023-05-10T10:12:19;15.50;99.90
52459;DHT22;38372;52.902;6.024;2023-05-10T10:14:47;15.40;99.90
52459;DHT22;38372;52.902;6.024;2023-05-10T10:17:13;15.30;99.90
52459;DHT22;38372;52.902;6.024;2023-05-10T10:19:40;15.30;99.90
52459;DHT22;38372;52.902;6.024;2023-05-10T10:22:06;15.30;99.90
52459;DHT22;38372;52.902;6.024;2023-05-10T10:24:32;15.30;99.90
52459;DHT22;38372;52.902;6.024;2023-05-10T10:27:20;15.30;99.90
52459;DHT22;38372;52.902;6.024;2023-05-10T10:30:03;15.20;99.90
52459;DHT22;38372;52.902;6.024;2023-05-10T10:35:12;15.20;99.90
52459;DHT22;38372;52.902;6.024;2023-05-10T10:37:44;15.20;99.90
52459;DHT22;38372;52.902;6.024;2023-05-10T10:40:29;15.30;99.90
52459;DHT22;38372;52.902;6.024;2023-05-10T10:42:56;15.20;99.90
52459;DHT22;38372;52.902;6.024;2023-05-10T10:45:24;15.20;99.90
52459;DHT22;38372;52.902;6.024;2023-05-10T10:48:21;15.10;99.90
52459;DHT22;38372;52.902;6.024;2023-05-10T10:50:51;15.10;99.90
52459;DHT22;38372;52.902;6.024;2023-05-10T10:53:21;15.00;99.90
52459;DHT22;38372;52.902;6.024;2023-05-10T10:55:47;14.90;99.90
52459;DHT22;38372;52.902;6.024;2023-05-10T10:58:34;14.80;99.90
52459;DHT22;38372;52.902;6.024;2023-05-10T11:01:35;14.90;99.90
52459;DHT22;38372;52.902;6.024;2023-05-10T11:08:57;14.90;99.90
52459;DHT22;38372;52.902;6.024;2023-05-10T11:11:23;14.90;99.90
52459;DHT22;38372;52.902;6.024;2023-05-10T11:13:49;14.90;99.90
52459;DHT22;38372;52.902;6.024;2023-05-10T11:19:03;15.00;99.90
52459;DHT22;38372;52.902;6.024;2023-05-10T11:21:31;15.00;99.90
52459;DHT22;38372;52.902;6.024;2023-05-10T11:23:58;15.00;99.90
52459;DHT22;38372;52.902;6.024;2023-05-10T11:26:34;15.00;99.90
52459;DHT22;38372;52.902;6.024;2023-05-10T11:29:01;15.00;99.90
52459;DHT22;38372;52.902;6.024;2023-05-10T11:31:28;15.00;99.90
52459;DHT22;38372;52.902;6.024;2023-05-10T11:33:59;15.00;99.90
52459;DHT22;38372;52.902;6.024;2023-05-10T11:36:27;15.00;99.90
52459;DHT22;38372;52.902;6.024;2023-05-10T11:38:54;15.10;99.90
52459;DHT22;38372;52.902;6.024;2023-05-10T11:41:20;15.10;99.90
52459;DHT22;38372;52.902;6.024;2023-05-10T11:43:48;15.10;99.90
52459;DHT22;38372;52.902;6.024;2023-05-10T11:46:15;15.20;99.90
52459;DHT22;38372;52.902;6.024;2023-05-10T11:48:42;15.20;99.90
52459;DHT22;38372;52.902;6.024;2023-05-10T11:51:09;15.20;99.90
52459;DHT22;38372;52.902;6.024;2023-05-10T11:53:36;15.30;99.90
52459;DHT22;38372;52.902;6.024;2023-05-10T11:56:06;15.30;99.90
52459;DHT22;38372;52.902;6.024;2023-05-10T11:58:33;15.40;99.90
52459;DHT22;38372;52.902;6.024;2023-05-10T12:00:59;15.30;99.90
52459;DHT22;38372;52.902;6.024;2023-05-10T12:03:26;15.40;99.90
52459;DHT22;38372;52.902;6.024;2023-05-10T12:05:53;15.50;99.90
52459;DHT22;38372;52.902;6.024;2023-05-10T12:08:23;15.50;99.90
52459;DHT22;38372;52.902;6.024;2023-05-10T12:10:50;15.60;99.90
52459;DHT22;38372;52.902;6.024;2023-05-10T12:13:17;15.60;99.90
52459;DHT22;38372;52.902;6.024;2023-05-10T12:15:43;15.70;99.90
52459;DHT22;38372;52.902;6.024;2023-05-10T12:18:10;15.70;99.90
52459;DHT22;38372;52.902;6.024;2023-05-10T12:20:37;15.70;99.90
52459;DHT22;38372;52.902;6.024;2023-05-10T12:23:03;15.70;99.90
52459;DHT22;38372;52.902;6.024;2023-05-10T12:25:34;15.60;99.90
52459;DHT22;38372;52.902;6.024;2023-05-10T12:28:03;15.60;99.90
52459;DHT22;38372;52.902;6.024;2023-05-10T12:30:31;15.60;99.90
52459;DHT22;38372;52.902;6.024;2023-05-10T12:33:13;15.60;99.90
52459;DHT22;38372;52.902;6.024;2023-05-10T12:35:47;15.60;99.90
52459;DHT22;38372;52.902;6.024;2023-05-10T12:38:32;15.60;99.90
52459;DHT22;38372;52.902;6.024;2023-05-10T12:41:02;15.60;99.90
52459;DHT22;38372;52.902;6.024;2023-05-10T12:43:28;15.60;99.90
52459;DHT22;38372;52.902;6.024;2023-05-10T12:45:54;15.60;99.90
52459;DHT22;38372;52.902;6.024;2023-05-10T12:48:20;15.70;99.90
52459;DHT22;38372;52.902;6.024;2023-05-10T12:50:47;15.80;99.90
52459;DHT22;38372;52.902;6.024;2023-05-10T12:53:15;15.90;99.90
52459;DHT22;38372;52.902;6.024;2023-05-10T12:55:44;15.90;99.90
52459;DHT22;38372;52.902;6.024;2023-05-10T12:58:10;16.00;99.90
52459;DHT22;38372;52.902;6.024;2023-05-10T13:00:36;16.10;99.90
52459;DHT22;38372;52.902;6.024;2023-05-10T13:03:04;16.10;99.90
52459;DHT22;38372;52.902;6.024;2023-05-10T13:05:32;16.00;99.90
52459;DHT22;38372;52.902;6.024;2023-05-10T13:07:58;16.10;99.90
52459;DHT22;38372;52.902;6.024;2023-05-10T13:10:24;16.00;99.90
52459;DHT22;38372;52.902;6.024;2023-05-10T13:12:50;16.00;99.90
52459;DHT22;38372;52.902;6.024;2023-05-10T13:15:16;16.10;99.90
52459;DHT22;38372;52.902;6.024;2023-05-10T13:17:42;16.10;99.90
52459;DHT22;38372;52.902;6.024;2023-05-10T13:20:09;16.30;99.90
52459;DHT22;38372;52.902;6.024;2023-05-10T13:22:35;16.40;99.90
52459;DHT22;38372;52.902;6.024;2023-05-10T13:25:01;16.50;99.90
52459;DHT22;38372;52.902;6.024;2023-05-10T13:27:29;16.60;99.90
52459;DHT22;38372;52.902;6.024;2023-05-10T13:29:55;16.70;99.90
52459;DHT22;38372;52.902;6.024;2023-05-10T13:32:21;16.60;99.90
52459;DHT22;38372;52.902;6.024;2023-05-10T13:34:47;16.70;99.90
52459;DHT22;38372;52.902;6.024;2023-05-10T13:37:12;16.60;99.90
52459;DHT22;38372;52.902;6.024;2023-05-10T13:39:38;16.60;99.90
52459;DHT22;38372;52.902;6.024;2023-05-10T13:42:05;16.50;99.90
52459;DHT22;38372;52.902;6.024;2023-05-10T13:44:31;16.40;99.90
52459;DHT22;38372;52.902;6.024;2023-05-10T13:46:59;16.20;99.90
52459;DHT22;38372;52.902;6.024;2023-05-10T13:49:25;16.20;99.90
52459;DHT22;38372;52.902;6.024;2023-05-10T13:51:51;16.00;99.90
52459;DHT22;38372;52.902;6.024;2023-05-10T13:54:17;15.90;99.90
52459;DHT22;38372;52.902;6.024;2023-05-10T13:56:45;16.00;99.90
52459;DHT22;38372;52.902;6.024;2023-05-10T13:59:13;15.90;99.90
52459;DHT22;38372;52.902;6.024;2023-05-10T14:01:42;16.00;99.90
52459;DHT22;38372;52.902;6.024;2023-05-10T14:04:09;16.00;99.90
52459;DHT22;38372;52.902;6.024;2023-05-10T14:06:38;16.10;99.90
52459;DHT22;38372;52.902;6.024;2023-05-10T14:09:04;16.20;99.90
52459;DHT22;38372;52.902;6.024;2023-05-10T14:11:30;16.30;99.90
52459;DHT22;38372;52.902;6.024;2023-05-10T14:13:55;16.40;99.90
52459;DHT22;38372;52.902;6.024;2023-05-10T14:16:21;16.40;99.90
52459;DHT22;38372;52.902;6.024;2023-05-10T14:18:47;16.50;99.90
52459;DHT22;38372;52.902;6.024;2023-05-10T14:21:13;16.50;99.90
52459;DHT22;38372;52.902;6.024;2023-05-10T14:23:39;16.60;99.90
52459;DHT22;38372;52.902;6.024;2023-05-10T14:26:05;16.60;99.90
52459;DHT22;38372;52.902;6.024;2023-05-10T14:28:31;16.60;99.90
52459;DHT22;38372;52.902;6.024;2023-05-10T14:30:58;16.60;99.90
52459;DHT22;38372;52.902;6.024;2023-05-10T14:33:24;16.60;99.90
52459;DHT22;38372;52.902;6.024;2023-05-10T14:35:50;16.60;99.90
52459;DHT22;38372;52.902;6.024;2023-05-10T14:38:16;16.70;99.90
52459;DHT22;38372;52.902;6.024;2023-05-10T14:40:42;16.70;99.90
52459;DHT22;38372;52.902;6.024;2023-05-10T14:43:08;16.80;99.90
52459;DHT22;38372;52.902;6.024;2023-05-10T14:45:34;16.80;99.90
52459;DHT22;38372;52.902;6.024;2023-05-10T14:48:00;16.80;99.90
52459;DHT22;38372;52.902;6.024;2023-05-10T14:50:30;16.80;99.90
52459;DHT22;38372;52.902;6.024;2023-05-10T14:52:57;16.90;99.90
52459;DHT22;38372;52.902;6.024;2023-05-10T14:55:23;17.00;99.90
52459;DHT22;38372;52.902;6.024;2023-05-10T14:57:49;17.00;99.90
52459;DHT22;38372;52.902;6.024;2023-05-10T15:00:16;17.10;99.90
52459;DHT22;38372;52.902;6.024;2023-05-10T15:02:42;17.20;99.90
52459;DHT22;38372;52.902;6.024;2023-05-10T15:05:08;17.10;99.90
52459;DHT22;38372;52.902;6.024;2023-05-10T15:07:34;17.10;99.90
52459;DHT22;38372;52.902;6.024;2023-05-10T15:10:00;17.00;99.90
52459;DHT22;38372;52.902;6.024;2023-05-10T15:12:26;16.90;99.90
52459;DHT22;38372;52.902;6.024;2023-05-10T15:14:51;16.80;99.90
52459;DHT22;38372;52.902;6.024;2023-05-10T15:17:17;16.70;99.90
52459;DHT22;38372;52.902;6.024;2023-05-10T15:19:43;16.60;99.90
52459;DHT22;38372;52.902;6.024;2023-05-10T15:22:09;16.50;99.90
52459;DHT22;38372;52.902;6.024;2023-05-10T15:24:34;16.40;99.90
52459;DHT22;38372;52.902;6.024;2023-05-10T15:27:00;16.20;99.90
52459;DHT22;38372;52.902;6.024;2023-05-10T15:29:26;16.10;99.90
52459;DHT22;38372;52.902;6.024;2023-05-10T15:31:52;15.90;99.90
52459;DHT22;38372;52.902;6.024;2023-05-10T15:34:18;15.80;99.90
52459;DHT22;38372;52.902;6.024;2023-05-10T15:36:44;15.70;99.90
52459;DHT22;38372;52.902;6.024;2023-05-10T15:39:11;15.60;99.90
52459;DHT22;38372;52.902;6.024;2023-05-10T15:41:37;15.60;99.90
52459;DHT22;38372;52.902;6.024;2023-05-10T15:44:03;15.50;99.90
52459;DHT22;38372;52.902;6.024;2023-05-10T15:46:30;15.50;99.90
52459;DHT22;38372;52.902;6.024;2023-05-10T15:48:57;15.40;99.90
52459;DHT22;38372;52.902;6.024;2023-05-10T15:51:24;15.40;99.90
52459;DHT22;38372;52.902;6.024;2023-05-10T15:53:50;15.40;99.90
52459;DHT22;38372;52.902;6.024;2023-05-10T15:56:16;15.30;99.90
52459;DHT22;38372;52.902;6.024;2023-05-10T15:58:41;15.20;99.90
52459;DHT22;38372;52.902;6.024;2023-05-10T16:01:09;15.20;99.90
52459;DHT22;38372;52.902;6.024;2023-05-10T16:03:36;15.10;99.90
52459;DHT22;38372;52.902;6.024;2023-05-10T16:06:02;15.10;99.90